Time;durP1;ratioP1;P1;durP2;ratioP2;P2;SDS_P1;SDS_P2;PMS_P1;PMS_P2;Temp;Humidity;BMP_temperature;BMP_pressure;BME280_temperature;BME280_humidity;BME280_pressure;Samples;Min_cycle;Max_cycle;Signal;HPM_P1;HPM_P2
2023/09/16 00:02:08;;;;;;;;;;;;;;;14.80;85.21;101358.94;5058625;28;20153;-65
2023/09/16 00:04:33;;;;;;;;;;;;;;;14.78;84.99;101357.16;5061217;28;20097;-66
2023/09/16 00:06:59;;;;;;;;;;;;;;;14.79;85.26;101352.81;5061657;28;19920;-65
2023/09/16 00:09:27;;;;;;;;;;;;;;;14.83;85.47;101356.34;5041802;28;19913;-64
2023/09/16 00:11:52;;;;;;;;;;;;;;;14.83;85.53;101357.25;5059767;28;19913;-65
2023/09/16 00:14:18;;;;;;;;;;;;;;;14.82;85.31;101357.25;5059598;28;20097;-65
2023/09/16 00:16:44;;;;;;;;;;;;;;;14.80;85.05;101358.94;5060783;28;19917;-65
2023/09/16 00:19:09;;;;;;;;;;;;;;;14.77;85.51;101357.16;5059531;28;19920;-65
2023/09/16 00:21:35;;;;;;;;;;;;;;;14.77;85.70;101359.75;5060797;28;21365;-65
2023/09/16 00:24:00;;;;;;;;;;;;;;;14.76;85.68;101369.38;5061350;28;19913;-65
2023/09/16 00:26:27;;;;;;;;;;;;;;;14.76;85.70;101372.00;5063435;28;20062;-65
2023/09/16 00:28:52;;;;;;;;;;;;;;;14.75;85.78;101375.50;5062123;28;19913;-65
2023/09/16 00:31:17;;;;;;;;;;;;;;;14.73;85.84;101369.34;5042689;28;20078;-65
2023/09/16 00:33:43;;;;;;;;;;;;;;;14.72;85.60;101372.81;5058730;28;19941;-66
2023/09/16 00:36:08;;;;;;;;;;;;;;;14.73;85.65;101373.69;5057960;28;19913;-66
2023/09/16 00:38:34;;;;;;;;;;;;;;;14.73;85.61;101371.06;5061022;28;20018;-65
2023/09/16 00:40:59;;;;;;;;;;;;;;;14.71;85.80;101368.44;5058640;28;19919;-66
2023/09/16 00:43:24;;;;;;;;;;;;;;;14.70;85.47;101368.41;5055786;28;19925;-65
2023/09/16 00:45:49;;;;;;;;;;;;;;;14.61;85.37;101363.88;5056551;28;19919;-65
2023/09/16 00:48:15;;;;;;;;;;;;;;;14.55;86.01;101358.53;5056806;28;19921;-66
2023/09/16 00:50:42;;;;;;;;;;;;;;;14.52;86.09;101359.38;5056465;28;19920;-66
2023/09/16 00:53:07;;;;;;;;;;;;;;;14.50;85.87;101352.34;5056327;28;19979;-65
2023/09/16 00:55:33;;;;;;;;;;;;;;;14.42;86.18;101350.50;5058265;28;19940;-65
2023/09/16 00:57:58;;;;;;;;;;;;;;;14.38;86.31;101351.31;5056503;28;19928;-65
2023/09/16 01:00:26;;;;;;;;;;;;;;;14.33;86.39;101342.47;5056636;28;20035;-65
2023/09/16 01:02:52;;;;;;;;;;;;;;;14.30;86.38;101339.78;5057016;28;20216;-65
2023/09/16 01:05:17;;;;;;;;;;;;;;;14.29;86.52;101338.03;5038462;28;19920;-65
2023/09/16 01:07:42;;;;;;;;;;;;;;;14.31;86.69;101338.03;5056569;28;19921;-65
2023/09/16 01:10:10;;;;;;;;;;;;;;;14.30;86.42;101341.56;5055925;28;19913;-66
2023/09/16 01:12:38;;;;;;;;;;;;;;;14.29;86.75;101332.78;5061127;28;19917;-65
2023/09/16 01:15:05;;;;;;;;;;;;;;;14.30;86.44;101331.06;5060316;28;19979;-65
2023/09/16 01:17:36;;;;;;;;;;;;;;;14.30;86.45;101333.69;5061775;28;20162;-65
2023/09/16 01:20:06;;;;;;;;;;;;;;;14.29;86.34;101332.78;5061083;28;19913;-65
2023/09/16 01:22:31;;;;;;;;;;;;;;;14.26;86.39;101336.25;5058810;28;19936;-65
2023/09/16 01:25:06;;;;;;;;;;;;;;;14.26;86.29;101331.03;5042079;28;20288;-65
2023/09/16 01:27:32;;;;;;;;;;;;;;;14.24;86.55;101327.47;5058285;28;20047;-65
2023/09/16 01:29:57;;;;;;;;;;;;;;;14.23;86.60;101332.69;5059904;28;20161;-66
2023/09/16 01:32:26;;;;;;;;;;;;;;;14.20;86.48;101330.03;5062801;28;20303;-66
2023/09/16 01:34:55;;;;;;;;;;;;;;;14.15;86.26;101331.69;5060965;28;19935;-65
2023/09/16 01:37:23;;;;;;;;;;;;;;;14.11;86.73;101336.00;5057458;28;19920;-65
2023/09/16 01:39:49;;;;;;;;;;;;;;;14.07;86.46;101340.28;5058493;28;19920;-65
2023/09/16 01:42:16;;;;;;;;;;;;;;;14.01;86.58;101340.19;5061543;28;19974;-65
2023/09/16 01:44:46;;;;;;;;;;;;;;;13.96;87.36;101338.34;5062177;28;19967;-65
2023/09/16 01:47:11;;;;;;;;;;;;;;;13.95;87.33;101327.00;5062999;28;19957;-65
2023/09/16 01:49:36;;;;;;;;;;;;;;;13.93;87.40;101325.19;5043539;28;19967;-65
2023/09/16 01:52:02;;;;;;;;;;;;;;;13.91;87.53;101328.66;5063060;28;19919;-65
2023/09/16 01:54:30;;;;;;;;;;;;;;;13.90;87.58;101324.28;5062567;28;19979;-66
2023/09/16 01:56:56;;;;;;;;;;;;;;;13.91;87.44;101322.53;5063074;28;19936;-65
2023/09/16 01:59:21;;;;;;;;;;;;;;;13.90;87.47;101316.44;5061814;28;20186;-65
2023/09/16 02:01:46;;;;;;;;;;;;;;;13.89;87.43;101321.66;5062626;28;20146;-65
2023/09/16 02:04:12;;;;;;;;;;;;;;;13.89;87.46;101324.28;5062018;28;19980;-65
2023/09/16 02:06:37;;;;;;;;;;;;;;;13.86;87.49;101319.84;5062561;28;19940;-65
2023/09/16 02:09:03;;;;;;;;;;;;;;;13.84;87.63;101323.28;5061869;28;19912;-65
2023/09/16 02:11:30;;;;;;;;;;;;;;;13.82;87.71;101319.78;5057227;28;19920;-65
2023/09/16 02:13:56;;;;;;;;;;;;;;;13.79;87.80;101315.34;5058383;28;19958;-65
2023/09/16 02:16:21;;;;;;;;;;;;;;;13.78;87.88;101315.34;5058174;28;20082;-65
2023/09/16 02:18:47;;;;;;;;;;;;;;;13.76;87.82;101315.31;5060098;28;20054;-65
2023/09/16 02:21:12;;;;;;;;;;;;;;;13.75;88.01;101324.00;5059006;28;19927;-65
2023/09/16 02:23:37;;;;;;;;;;;;;;;13.73;88.17;101317.88;5058809;28;19913;-65
2023/09/16 02:26:02;;;;;;;;;;;;;;;13.71;88.22;101320.44;5058359;28;20173;-65
2023/09/16 02:28:28;;;;;;;;;;;;;;;13.71;88.31;101315.19;5059668;28;19920;-65
2023/09/16 02:30:53;;;;;;;;;;;;;;;13.71;88.29;101312.59;5059283;28;19920;-65
2023/09/16 02:33:21;;;;;;;;;;;;;;;13.70;88.39;101316.06;5061134;28;20028;-65
2023/09/16 02:35:46;;;;;;;;;;;;;;;13.68;88.34;101312.53;5060805;28;19919;-65
2023/09/16 02:38:12;;;;;;;;;;;;;;;13.68;88.29;101306.41;5060170;28;19912;-65
2023/09/16 02:40:40;;;;;;;;;;;;;;;13.68;88.35;101309.91;5058963;28;19912;-65
2023/09/16 02:43:08;;;;;;;;;;;;;;;13.69;88.40;101310.81;5059297;28;19916;-65
2023/09/16 02:45:40;;;;;;;;;;;;;;;13.66;87.95;101316.88;5058929;28;19924;-65
2023/09/16 02:48:09;;;;;;;;;;;;;;;13.51;88.12;101311.34;5059445;28;20059;-65
2023/09/16 02:50:36;;;;;;;;;;;;;;;13.38;88.59;101307.59;5058013;28;20082;-65
2023/09/16 02:53:01;;;;;;;;;;;;;;;13.32;88.89;101300.47;5061018;28;19913;-65
2023/09/16 02:55:27;;;;;;;;;;;;;;;13.22;90.40;101315.13;5058026;28;19964;-65
2023/09/16 02:57:53;;;;;;;;;;;;;;;13.03;92.42;101319.09;5058551;28;19925;-65
2023/09/16 03:00:18;;;;;;;;;;;;;;;12.85;95.84;101322.19;5058725;28;20058;-65
2023/09/16 03:02:46;;;;;;;;;;;;;;;12.66;92.77;101323.50;5058784;28;19913;-65
2023/09/16 03:05:11;;;;;;;;;;;;;;;12.48;92.48;101317.84;5060616;28;19913;-65
2023/09/16 03:07:36;;;;;;;;;;;;;;;12.48;93.35;101310.03;5059147;28;20069;-65
2023/09/16 03:10:02;;;;;;;;;;;;;;;12.53;93.04;101313.63;5059687;28;19919;-65
2023/09/16 03:12:27;;;;;;;;;;;;;;;12.61;93.27;101304.22;5060875;28;19912;-65
2023/09/16 03:14:52;;;;;;;;;;;;;;;12.68;93.22;101306.13;5059554;28;20028;-65
2023/09/16 03:17:17;;;;;;;;;;;;;;;12.73;92.69;101310.56;5041197;28;19966;-65
2023/09/16 03:19:43;;;;;;;;;;;;;;;12.78;92.47;101301.13;5058602;28;19974;-65
2023/09/16 03:22:08;;;;;;;;;;;;;;;12.85;92.70;101300.41;5056599;28;19913;-65
2023/09/16 03:24:33;;;;;;;;;;;;;;;12.88;92.32;101293.47;5060397;28;19913;-65
2023/09/16 03:26:58;;;;;;;;;;;;;;;12.92;92.27;101293.53;5060337;28;19921;-65
2023/09/16 03:29:26;;;;;;;;;;;;;;;12.95;92.03;101296.25;5060934;28;20166;-65
2023/09/16 03:31:51;;;;;;;;;;;;;;;12.94;91.26;101297.09;5059082;28;19913;-65
2023/09/16 03:34:17;;;;;;;;;;;;;;;12.90;91.96;101300.50;5059805;28;19935;-65
2023/09/16 03:36:42;;;;;;;;;;;;;;;12.87;91.88;101296.06;5058729;28;20229;-65
2023/09/16 03:39:07;;;;;;;;;;;;;;;12.84;92.42;101290.78;5058462;28;19921;-65
2023/09/16 03:41:32;;;;;;;;;;;;;;;12.85;92.40;101292.56;5059805;28;19913;-65
2023/09/16 03:43:57;;;;;;;;;;;;;;;12.87;91.78;101296.06;5058808;28;19998;-65
2023/09/16 03:46:23;;;;;;;;;;;;;;;12.86;91.89;101289.97;5064598;28;19940;-65
2023/09/16 03:48:49;;;;;;;;;;;;;;;12.85;92.19;101293.41;5061666;28;19947;-65
2023/09/16 03:51:14;;;;;;;;;;;;;;;12.87;92.33;101285.59;5061895;28;20063;-64
2023/09/16 03:53:45;;;;;;;;;;;;;;;12.90;92.26;101285.66;5065442;28;19971;-65
2023/09/16 03:56:11;;;;;;;;;;;;;;;12.93;92.22;101280.50;5065088;28;20068;-65
2023/09/16 03:58:37;;;;;;;;;;;;;;;12.92;91.78;101281.38;5065018;28;19933;-65
2023/09/16 04:01:02;;;;;;;;;;;;;;;12.93;92.04;101280.50;5064698;28;19917;-65
2023/09/16 04:03:27;;;;;;;;;;;;;;;12.91;91.72;101287.44;5064027;28;19940;-65
2023/09/16 04:05:56;;;;;;;;;;;;;;;12.92;92.21;101281.38;5047086;28;20193;-65
2023/09/16 04:08:21;;;;;;;;;;;;;;;12.91;92.08;101281.34;5064309;28;19948;-65
2023/09/16 04:10:47;;;;;;;;;;;;;;;12.86;91.72;101281.22;5057758;28;19921;-65
2023/09/16 04:13:12;;;;;;;;;;;;;;;12.75;92.47;101274.91;5056840;28;19919;-65
2023/09/16 04:15:37;;;;;;;;;;;;;;;12.61;92.71;101278.06;5058947;28;19916;-65
2023/09/16 04:18:03;;;;;;;;;;;;;;;12.58;93.26;101282.38;5062174;28;19925;-65
2023/09/16 04:20:28;;;;;;;;;;;;;;;12.59;93.35;101278.91;5061949;28;19913;-65
2023/09/16 04:22:53;;;;;;;;;;;;;;;12.62;93.39;101289.44;5062491;28;20177;-65
2023/09/16 04:25:18;;;;;;;;;;;;;;;12.65;93.15;101279.91;5064047;28;19913;-64
2023/09/16 04:27:43;;;;;;;;;;;;;;;12.67;93.25;101278.22;5061040;28;19980;-65
2023/09/16 04:30:10;;;;;;;;;;;;;;;12.68;93.30;101282.59;5063085;28;19936;-65
2023/09/16 04:32:35;;;;;;;;;;;;;;;12.71;93.25;101284.41;5061136;28;19917;-65
2023/09/16 04:35:00;;;;;;;;;;;;;;;12.73;93.19;101281.81;5061656;28;19966;-65
2023/09/16 04:37:28;;;;;;;;;;;;;;;12.74;93.10;101279.22;5062702;28;19912;-65
2023/09/16 04:39:53;;;;;;;;;;;;;;;12.74;93.05;101280.97;5060675;28;19986;-64
2023/09/16 04:42:18;;;;;;;;;;;;;;;12.74;92.87;101279.22;5060386;28;19936;-64
2023/09/16 04:44:44;;;;;;;;;;;;;;;12.75;92.93;101269.66;5060892;28;19966;-64
2023/09/16 04:47:15;;;;;;;;;;;;;;;12.77;92.92;101278.41;5062706;28;19920;-64
2023/09/16 04:49:40;;;;;;;;;;;;;;;12.76;92.93;101267.09;5042912;28;19933;-64
2023/09/16 04:52:05;;;;;;;;;;;;;;;12.76;92.86;101269.69;5062245;28;19920;-64
2023/09/16 04:54:35;;;;;;;;;;;;;;;12.75;92.82;101273.16;5062832;28;20197;-64
2023/09/16 04:57:02;;;;;;;;;;;;;;;12.73;92.94;101272.25;5061168;28;21200;-64
2023/09/16 04:59:32;;;;;;;;;;;;;;;12.70;92.87;101273.06;5062025;28;20047;-64
2023/09/16 05:01:57;;;;;;;;;;;;;;;12.64;92.72;101277.25;5062273;28;20066;-64
2023/09/16 05:04:22;;;;;;;;;;;;;;;12.57;93.00;101267.53;5062782;28;19929;-64
2023/09/16 05:06:47;;;;;;;;;;;;;;;12.53;92.50;101277.91;5061176;28;19928;-64
2023/09/16 05:09:13;;;;;;;;;;;;;;;12.50;92.92;101284.81;5060567;28;20142;-64
2023/09/16 05:11:38;;;;;;;;;;;;;;;12.50;92.94;101277.84;5062742;28;19913;-64
2023/09/16 05:14:03;;;;;;;;;;;;;;;12.51;93.46;101282.25;5061259;28;20015;-64
2023/09/16 05:16:28;;;;;;;;;;;;;;;12.53;93.59;101282.28;5059666;28;19919;-64
2023/09/16 05:18:53;;;;;;;;;;;;;;;12.56;93.58;101282.34;5060133;28;19964;-64
2023/09/16 05:21:19;;;;;;;;;;;;;;;12.57;93.43;101276.25;5059336;28;19998;-64
2023/09/16 05:23:44;;;;;;;;;;;;;;;12.56;92.92;101277.09;5060608;28;19913;-64
2023/09/16 05:26:12;;;;;;;;;;;;;;;12.53;92.92;101285.75;5059231;28;20062;-64
2023/09/16 05:28:37;;;;;;;;;;;;;;;12.42;93.17;101286.34;5038063;28;19928;-64
2023/09/16 05:31:03;;;;;;;;;;;;;;;12.29;93.68;101282.56;5059476;28;20161;-64
2023/09/16 05:33:29;;;;;;;;;;;;;;;12.21;94.38;101286.72;5058936;28;19917;-64
2023/09/16 05:35:54;;;;;;;;;;;;;;;12.21;94.65;101277.19;5059258;28;19913;-64
2023/09/16 05:38:19;;;;;;;;;;;;;;;12.24;94.63;101277.25;5057368;28;21052;-64
2023/09/16 05:40:44;;;;;;;;;;;;;;;12.24;95.06;101282.47;5060285;28;20030;-64
2023/09/16 05:43:09;;;;;;;;;;;;;;;12.23;95.22;101285.91;5052270;28;20093;-64
2023/09/16 05:45:36;;;;;;;;;;;;;;;12.23;95.09;101279.81;5036488;28;19916;-64
2023/09/16 05:48:02;;;;;;;;;;;;;;;12.24;95.06;101285.09;5059499;28;19925;-65
2023/09/16 05:50:27;;;;;;;;;;;;;;;12.23;95.02;101291.16;5059681;28;19917;-64
2023/09/16 05:52:52;;;;;;;;;;;;;;;12.25;95.70;101284.25;5061404;28;19935;-64
2023/09/16 05:55:18;;;;;;;;;;;;;;;12.30;96.16;101290.44;5050261;28;19928;-64
2023/09/16 05:57:43;;;;;;;;;;;;;;;12.34;96.18;101283.59;5046352;28;19910;-64
2023/09/16 06:00:08;;;;;;;;;;;;;;;12.40;96.34;101288.94;5053780;28;19932;-64
2023/09/16 06:02:38;;;;;;;;;;;;;;;12.44;96.40;101288.16;5050729;28;19976;-64
2023/09/16 06:05:04;;;;;;;;;;;;;;;12.48;95.94;101282.16;5061942;28;19967;-64
2023/09/16 06:07:29;;;;;;;;;;;;;;;12.52;95.71;101283.09;5062839;28;20062;-64
2023/09/16 06:09:54;;;;;;;;;;;;;;;12.53;95.65;101292.72;5056677;28;20005;-64
2023/09/16 06:12:19;;;;;;;;;;;;;;;12.53;95.93;101293.59;5053121;28;19991;-64
2023/09/16 06:14:45;;;;;;;;;;;;;;;12.55;96.44;101298.84;5060557;28;19921;-64
2023/09/16 06:17:10;;;;;;;;;;;;;;;12.56;96.63;101289.28;5057593;28;19974;-64
2023/09/16 06:19:37;;;;;;;;;;;;;;;12.59;96.96;101290.25;5052807;28;19913;-64
2023/09/16 06:22:02;;;;;;;;;;;;;;;12.63;96.92;101289.47;5056853;28;20213;-64
2023/09/16 06:24:28;;;;;;;;;;;;;;;12.67;96.99;101299.16;5058120;28;19919;-64
2023/09/16 06:26:53;;;;;;;;;;;;;;;12.71;96.73;101294.84;5057819;28;20062;-64
2023/09/16 06:29:18;;;;;;;;;;;;;;;12.74;96.67;101294.03;5060043;28;19912;-64
2023/09/16 06:31:43;;;;;;;;;;;;;;;12.76;96.50;101288.00;5061159;28;19917;-64
2023/09/16 06:34:08;;;;;;;;;;;;;;;12.79;96.69;101293.31;5059294;28;20062;-64
2023/09/16 06:36:34;;;;;;;;;;;;;;;12.84;96.67;101298.63;5057403;28;19920;-64
2023/09/16 06:39:00;;;;;;;;;;;;;;;12.89;96.92;101299.63;5062799;28;19929;-64
2023/09/16 06:41:25;;;;;;;;;;;;;;;12.93;96.82;101301.41;5059299;28;19940;-64
2023/09/16 06:43:50;;;;;;;;;;;;;;;12.98;97.23;101293.69;5060593;28;19913;-64
2023/09/16 06:46:17;;;;;;;;;;;;;;;13.03;97.24;101299.88;5059451;28;19924;-64
2023/09/16 06:48:44;;;;;;;;;;;;;;;13.09;97.39;101302.63;5062297;28;19912;-64
2023/09/16 06:51:09;;;;;;;;;;;;;;;13.13;97.84;101307.06;5059948;28;20059;-64
2023/09/16 06:53:34;;;;;;;;;;;;;;;13.16;97.83;101299.28;5060570;28;19928;-64
2023/09/16 06:56:00;;;;;;;;;;;;;;;13.21;98.52;101302.03;5061454;28;19920;-65
2023/09/16 06:58:25;;;;;;;;;;;;;;;13.28;97.69;101301.28;5061769;28;19913;-64
2023/09/16 07:00:50;;;;;;;;;;;;;;;13.33;97.40;101293.53;5060269;28;19984;-64
2023/09/16 07:03:15;;;;;;;;;;;;;;;13.37;98.21;101301.50;5057395;28;19986;-64
2023/09/16 07:05:47;;;;;;;;;;;;;;;13.43;99.19;101300.72;5058427;28;19913;-64
2023/09/16 07:08:13;;;;;;;;;;;;;;;13.50;99.25;101296.50;5058632;28;19916;-64
2023/09/16 07:10:38;;;;;;;;;;;;;;;13.56;99.83;101288.75;5060146;28;19913;-64
2023/09/16 07:13:04;;;;;;;;;;;;;;;13.65;99.16;101299.38;5058167;28;19916;-64
2023/09/16 07:15:29;;;;;;;;;;;;;;;13.70;99.16;101297.75;5061168;28;19939;-64
2023/09/16 07:17:54;;;;;;;;;;;;;;;13.77;99.36;101292.59;5059987;28;19940;-64
2023/09/16 07:20:19;;;;;;;;;;;;;;;13.83;99.76;101291.00;5042187;28;19913;-64
2023/09/16 07:22:44;;;;;;;;;;;;;;;13.91;99.37;101289.38;5058683;28;19913;-64
2023/09/16 07:25:10;;;;;;;;;;;;;;;14.00;100.00;101291.25;5058508;28;19959;-64
2023/09/16 07:27:35;;;;;;;;;;;;;;;14.17;100.00;101293.28;5063233;28;19958;-64
2023/09/16 07:30:00;;;;;;;;;;;;;;;14.27;100.00;101290.81;5060287;28;19924;-64
2023/09/16 07:32:25;;;;;;;;;;;;;;;14.40;100.00;101291.03;5063755;28;20098;-64
2023/09/16 07:34:50;;;;;;;;;;;;;;;14.53;100.00;101292.97;5064770;28;20084;-64
2023/09/16 07:37:15;;;;;;;;;;;;;;;14.68;100.00;101294.94;5059662;28;20099;-64
2023/09/16 07:39:41;;;;;;;;;;;;;;;14.78;100.00;101296.81;5062354;28;19933;-64
2023/09/16 07:42:06;;;;;;;;;;;;;;;14.92;100.00;101304.91;5061231;28;19948;-64
2023/09/16 07:44:31;;;;;;;;;;;;;;;15.03;100.00;101305.03;5062789;28;20138;-64
2023/09/16 07:46:56;;;;;;;;;;;;;;;15.11;100.00;101305.13;5064818;28;20019;-64
2023/09/16 07:49:21;;;;;;;;;;;;;;;15.16;100.00;101306.06;5062261;28;19936;-65
2023/09/16 07:51:47;;;;;;;;;;;;;;;15.23;100.00;101302.63;5061498;28;19960;-65
2023/09/16 07:54:15;;;;;;;;;;;;;;;15.32;100.00;101296.63;5062440;28;19920;-65
2023/09/16 07:56:40;;;;;;;;;;;;;;;15.42;100.00;101298.47;5063467;28;19913;-65
2023/09/16 07:59:06;;;;;;;;;;;;;;;15.58;100.00;101306.53;5063655;28;19932;-65
2023/09/16 08:01:31;;;;;;;;;;;;;;;15.72;100.00;101304.06;5059418;28;19924;-65
2023/09/16 08:03:56;;;;;;;;;;;;;;;15.85;100.00;101307.72;5061004;28;20097;-65
2023/09/16 08:06:21;;;;;;;;;;;;;;;15.97;100.00;101313.06;5062860;28;19912;-65
2023/09/16 08:08:49;;;;;;;;;;;;;;;16.14;100.00;101316.72;5063928;28;20168;-65
2023/09/16 08:11:14;;;;;;;;;;;;;;;16.26;100.00;101309.78;5061868;28;19933;-64
2023/09/16 08:13:39;;;;;;;;;;;;;;;16.39;100.00;101311.63;5061572;28;19919;-64
2023/09/16 08:16:07;;;;;;;;;;;;;;;16.56;100.00;101308.25;5064107;28;19912;-64
2023/09/16 08:18:32;;;;;;;;;;;;;;;16.69;100.00;101304.81;5062401;28;19913;-65
2023/09/16 08:20:59;;;;;;;;;;;;;;;16.80;100.00;101308.41;5062412;28;19921;-65
2023/09/16 08:23:25;;;;;;;;;;;;;;;16.94;99.62;101308.47;5063828;28;20151;-65
2023/09/16 08:25:50;;;;;;;;;;;;;;;17.07;99.32;101306.78;5061574;28;19976;-65
2023/09/16 08:28:15;;;;;;;;;;;;;;;17.17;99.61;101312.97;5060119;28;19919;-65
2023/09/16 08:30:40;;;;;;;;;;;;;;;17.31;98.94;101310.41;5058105;28;20143;-65
2023/09/16 08:33:05;;;;;;;;;;;;;;;17.47;99.20;101317.47;5057692;28;19913;-65
2023/09/16 08:35:30;;;;;;;;;;;;;;;17.62;99.05;101311.34;5060542;28;19962;-65
2023/09/16 08:37:58;;;;;;;;;;;;;;;17.78;97.97;101317.53;5060856;28;19967;-65
2023/09/16 08:40:25;;;;;;;;;;;;;;;17.95;98.60;101322.00;5060123;28;19940;-65
2023/09/16 08:43:02;;;;;;;;;;;;;;;18.12;98.75;101330.78;5060939;28;19948;-65
2023/09/16 08:45:31;;;;;;;;;;;;;;;18.32;97.15;101329.88;5061101;28;19925;-65
2023/09/16 08:48:01;;;;;;;;;;;;;;;18.53;97.92;101334.28;5060576;28;20152;-65
2023/09/16 08:50:27;;;;;;;;;;;;;;;18.70;98.16;101332.47;5061921;28;20058;-65
2023/09/16 08:52:55;;;;;;;;;;;;;;;18.83;92.36;101335.97;5062395;28;19913;-65
2023/09/16 08:55:21;;;;;;;;;;;;;;;18.90;94.18;101331.56;5058972;28;19913;-65
2023/09/16 08:58:09;;;;;;;;;;;;;;;19.01;94.82;101334.19;5060252;28;19920;-65
2023/09/16 09:00:38;;;;;;;;;;;;;;;19.11;94.49;101331.47;5060148;28;20177;-66
2023/09/16 09:03:03;;;;;;;;;;;;;;;19.14;94.83;101333.25;5058839;28;19951;-66
2023/09/16 09:05:33;;;;;;;;;;;;;;;19.24;93.36;101329.66;5060604;28;20082;-66
2023/09/16 09:07:58;;;;;;;;;;;;;;;19.35;92.50;101323.44;5061148;28;19995;-66
2023/09/16 09:10:24;;;;;;;;;;;;;;;19.43;93.17;101324.31;5060474;28;20142;-66
2023/09/16 09:12:49;;;;;;;;;;;;;;;19.56;92.50;101328.63;5061178;28;19925;-66
2023/09/16 09:15:15;;;;;;;;;;;;;;;19.69;92.57;101325.91;5061852;28;20861;-66
2023/09/16 09:17:45;;;;;;;;;;;;;;;19.82;91.77;101330.25;5041834;28;19982;-66
2023/09/16 09:20:21;;;;;;;;;;;;;;;19.97;91.47;101332.81;5060587;28;19968;-66
2023/09/16 09:22:47;;;;;;;;;;;;;;;20.11;87.76;101342.41;5057314;28;19976;-67
2023/09/16 09:25:12;;;;;;;;;;;;;;;20.15;89.20;101346.78;5063813;28;19913;-67
2023/09/16 09:27:39;;;;;;;;;;;;;;;20.24;90.07;101348.47;5062641;28;19919;-67
2023/09/16 09:30:04;;;;;;;;;;;;;;;20.20;89.23;101347.59;5061612;28;19912;-67
2023/09/16 09:32:31;;;;;;;;;;;;;;;20.29;90.14;101350.19;5063744;28;20152;-67
2023/09/16 09:34:57;;;;;;;;;;;;;;;20.47;89.55;101346.47;5057606;28;19913;-67
2023/09/16 09:37:22;;;;;;;;;;;;;;;20.64;90.40;101350.75;5057968;28;19920;-67
2023/09/16 09:40:03;;;;;;;;;;;;;;;20.78;84.83;101346.22;5060318;28;19925;-67
2023/09/16 09:42:29;;;;;;;;;;;;;;;20.88;86.13;101349.63;5058402;28;19940;-67
2023/09/16 09:45:00;;;;;;;;;;;;;;;20.95;84.74;101356.59;5063157;28;19919;-67
2023/09/16 09:47:25;;;;;;;;;;;;;;;21.09;85.08;101355.59;5063204;28;19970;-67
2023/09/16 09:49:50;;;;;;;;;;;;;;;21.12;82.71;101350.25;5064208;28;20043;-67
2023/09/16 09:52:15;;;;;;;;;;;;;;;21.21;85.25;101362.50;5063340;28;19915;-67
2023/09/16 09:54:40;;;;;;;;;;;;;;;21.25;80.41;101357.16;5062170;28;19919;-68
2023/09/16 09:57:07;;;;;;;;;;;;;;;21.27;84.74;101358.00;5063712;28;19935;-67
2023/09/16 09:59:32;;;;;;;;;;;;;;;21.37;84.79;101349.03;5063386;28;20022;-67
2023/09/16 10:02:01;;;;;;;;;;;;;;;21.57;84.92;101349.72;5063089;28;20202;-68
2023/09/16 10:04:26;;;;;;;;;;;;;;;21.76;84.85;101345.00;5062444;28;20903;-67
2023/09/16 10:06:51;;;;;;;;;;;;;;;21.95;84.68;101337.63;5061064;28;20159;-67
2023/09/16 10:09:17;;;;;;;;;;;;;;;22.15;84.03;101343.50;5062929;28;20096;-68
2023/09/16 10:11:42;;;;;;;;;;;;;;;22.31;80.85;101344.09;5062586;28;19980;-67
2023/09/16 10:14:08;;;;;;;;;;;;;;;22.49;80.53;101339.41;5062677;28;19909;-67
2023/09/16 10:16:33;;;;;;;;;;;;;;;22.58;74.48;101332.16;5063755;28;19980;-68
2023/09/16 10:18:59;;;;;;;;;;;;;;;22.71;79.25;101332.81;5062256;28;20065;-67
2023/09/16 10:21:24;;;;;;;;;;;;;;;22.83;80.11;101330.81;5063518;28;19955;-68
2023/09/16 10:23:50;;;;;;;;;;;;;;;23.10;80.85;101332.00;5063197;28;19937;-68
2023/09/16 10:26:16;;;;;;;;;;;;;;;23.34;79.22;101328.00;5062882;28;19913;-67
2023/09/16 10:28:46;;;;;;;;;;;;;;;23.41;76.58;101332.28;5063351;28;20161;-68
2023/09/16 10:31:11;;;;;;;;;;;;;;;23.40;77.47;101333.16;5060434;28;19917;-67
2023/09/16 10:33:39;;;;;;;;;;;;;;;23.54;78.53;101332.00;5063428;28;19947;-67
2023/09/16 10:36:05;;;;;;;;;;;;;;;23.64;78.61;101322.00;5062189;28;19913;-67
2023/09/16 10:38:31;;;;;;;;;;;;;;;23.76;78.24;101325.25;5041022;28;19990;-67
2023/09/16 10:40:57;;;;;;;;;;;;;;;23.92;77.21;101335.56;5061354;28;19958;-68
2023/09/16 10:43:22;;;;;;;;;;;;;;;23.90;77.80;101332.97;5045037;28;19932;-67
2023/09/16 10:45:48;;;;;;;;;;;;;;;23.87;76.79;101322.38;5061524;28;19921;-68
2023/09/16 10:48:13;;;;;;;;;;;;;;;23.84;76.13;101330.41;5057323;28;19913;-68
2023/09/16 10:50:39;;;;;;;;;;;;;;;23.78;72.33;101318.13;5057356;28;20066;-67
2023/09/16 10:53:05;;;;;;;;;;;;;;;23.66;73.63;101317.53;5061415;28;19909;-67
2023/09/16 10:55:39;;;;;;;;;;;;;;;23.73;75.79;101314.69;5058942;28;19943;-67
2023/09/16 10:58:19;;;;;;;;;;;;;;;23.85;74.90;101317.97;5060537;28;19912;-67
2023/09/16 11:00:50;;;;;;;;;;;;;;;23.83;76.19;101315.34;5055572;28;19917;-67
2023/09/16 11:03:16;;;;;;;;;;;;;;;23.92;76.74;101314.28;5048629;28;19980;-67
2023/09/16 11:05:41;;;;;;;;;;;;;;;24.11;76.31;101304.94;5046074;28;20092;-68
2023/09/16 11:08:09;;;;;;;;;;;;;;;24.29;75.82;101308.91;5051383;28;19959;-68
2023/09/16 11:10:35;;;;;;;;;;;;;;;24.34;75.32;101311.44;5051190;28;19909;-67
2023/09/16 11:13:01;;;;;;;;;;;;;;;24.39;74.56;101304.22;5053513;28;19920;-68
2023/09/16 11:15:33;;;;;;;;;;;;;;;24.52;75.55;101295.88;5062407;28;19909;-67
2023/09/16 11:18:01;;;;;;;;;;;;;;;24.63;72.46;101300.00;5043061;28;19921;-67
2023/09/16 11:20:31;;;;;;;;;;;;;;;24.72;70.45;101303.34;5053298;28;19951;-67
2023/09/16 11:22:56;;;;;;;;;;;;;;;24.58;70.84;101301.06;5049902;28;20216;-67
2023/09/16 11:25:21;;;;;;;;;;;;;;;24.66;71.73;101304.38;5051540;28;20007;-67
2023/09/16 11:27:46;;;;;;;;;;;;;;;24.74;71.71;101296.19;5053023;28;19910;-67
2023/09/16 11:30:15;;;;;;;;;;;;;;;24.83;71.87;101302.13;5053790;28;19916;-68
2023/09/16 11:32:41;;;;;;;;;;;;;;;24.97;73.28;101295.53;5055727;28;20048;-67
2023/09/16 11:35:07;;;;;;;;;;;;;;;24.91;66.79;101288.59;5056610;28;20143;-67
2023/09/16 11:37:33;;;;;;;;;;;;;;;24.90;69.83;101285.97;5059506;28;19913;-67
2023/09/16 11:40:00;;;;;;;;;;;;;;;24.96;71.60;101278.66;5060762;28;19909;-67
2023/09/16 11:42:25;;;;;;;;;;;;;;;24.98;70.57;101291.94;5056556;28;19920;-67
2023/09/16 11:44:50;;;;;;;;;;;;;;;25.00;71.21;101287.44;5055548;28;19936;-67
2023/09/16 11:47:16;;;;;;;;;;;;;;;25.17;70.50;101289.56;5060471;28;19909;-67
2023/09/16 11:49:41;;;;;;;;;;;;;;;25.25;67.73;101297.38;5043607;28;20193;-67
2023/09/16 11:52:06;;;;;;;;;;;;;;;25.28;70.66;101294.59;5061970;28;19909;-66
2023/09/16 11:54:31;;;;;;;;;;;;;;;25.33;71.22;101293.56;5060205;28;19913;-67
2023/09/16 11:56:57;;;;;;;;;;;;;;;25.40;69.08;101296.03;5048914;28;19948;-67
2023/09/16 11:59:23;;;;;;;;;;;;;;;25.38;69.49;101296.09;5051367;28;19987;-67
2023/09/16 12:01:49;;;;;;;;;;;;;;;25.43;68.83;101294.16;5053046;28;20074;-67
2023/09/16 12:04:15;;;;;;;;;;;;;;;25.50;69.82;101295.69;5035489;28;19919;-67
2023/09/16 12:06:41;;;;;;;;;;;;;;;25.65;69.60;101288.13;5057542;28;20086;-67
2023/09/16 12:09:07;;;;;;;;;;;;;;;25.80;70.38;101294.78;5056543;28;19908;-67
2023/09/16 12:11:33;;;;;;;;;;;;;;;25.92;69.44;101281.00;5062211;28;19935;-67
2023/09/16 12:14:00;;;;;;;;;;;;;;;25.99;69.91;101281.69;5064042;28;20214;-67
2023/09/16 12:16:26;;;;;;;;;;;;;;;26.01;64.68;101280.75;5063436;28;19924;-67
2023/09/16 12:18:51;;;;;;;;;;;;;;;25.94;68.17;101284.50;5065787;28;19913;-67
2023/09/16 12:21:16;;;;;;;;;;;;;;;26.00;66.81;101278.13;5063491;28;19948;-67
2023/09/16 12:23:42;;;;;;;;;;;;;;;25.89;64.01;101274.91;5065618;28;19991;-67
2023/09/16 12:26:10;;;;;;;;;;;;;;;25.89;67.22;101270.44;5065494;28;19916;-68
2023/09/16 12:28:36;;;;;;;;;;;;;;;25.89;67.61;101280.25;5062894;28;20257;-67
2023/09/16 12:31:01;;;;;;;;;;;;;;;25.64;64.14;101279.25;5061152;28;19924;-67